sensor_id;sensor_type;location;lat;lon;timestamp;P1;durP1;ratioP1;P2;durP2;ratioP2
29430;SDS011;16404;49.902;10.074;2022-12-07T00:02:25;21.92;;;12.57;;
29430;SDS011;16404;49.902;10.074;2022-12-07T00:05:10;24.35;;;12.57;;
29430;SDS011;16404;49.902;10.074;2022-12-07T00:07:55;30.63;;;13.40;;
29430;SDS011;16404;49.902;10.074;2022-12-07T00:10:39;22.67;;;12.95;;
29430;SDS011;16404;49.902;10.074;2022-12-07T00:13:24;25.65;;;12.20;;
29430;SDS011;16404;49.902;10.074;2022-12-07T00:16:09;25.65;;;12.68;;
29430;SDS011;16404;49.902;10.074;2022-12-07T00:18:58;22.05;;;12.20;;
29430;SDS011;16404;49.902;10.074;2022-12-07T00:24:27;23.67;;;12.70;;
29430;SDS011;16404;49.902;10.074;2022-12-07T00:27:12;24.60;;;13.80;;
29430;SDS011;16404;49.902;10.074;2022-12-07T00:29:56;22.63;;;12.65;;
29430;SDS011;16404;49.902;10.074;2022-12-07T00:32:41;24.88;;;13.10;;
29430;SDS011;16404;49.902;10.074;2022-12-07T00:35:25;25.08;;;14.50;;
29430;SDS011;16404;49.902;10.074;2022-12-07T00:38:10;26.00;;;14.45;;
29430;SDS011;16404;49.902;10.074;2022-12-07T00:40:59;23.67;;;13.43;;
29430;SDS011;16404;49.902;10.074;2022-12-07T00:43:48;27.30;;;13.98;;
29430;SDS011;16404;49.902;10.074;2022-12-07T00:46:33;25.27;;;12.80;;
29430;SDS011;16404;49.902;10.074;2022-12-07T00:49:18;26.77;;;13.13;;
29430;SDS011;16404;49.902;10.074;2022-12-07T00:52:02;24.63;;;13.48;;
29430;SDS011;16404;49.902;10.074;2022-12-07T00:54:47;26.58;;;13.10;;
29430;SDS011;16404;49.902;10.074;2022-12-07T00:57:32;25.38;;;12.52;;
29430;SDS011;16404;49.902;10.074;2022-12-07T01:00:16;27.02;;;13.68;;
29430;SDS011;16404;49.902;10.074;2022-12-07T01:03:02;26.75;;;13.35;;
29430;SDS011;16404;49.902;10.074;2022-12-07T01:05:51;23.98;;;13.63;;
29430;SDS011;16404;49.902;10.074;2022-12-07T01:08:36;27.63;;;14.30;;
29430;SDS011;16404;49.902;10.074;2022-12-07T01:11:22;23.67;;;13.27;;
29430;SDS011;16404;49.902;10.074;2022-12-07T01:14:09;25.17;;;13.05;;
29430;SDS011;16404;49.902;10.074;2022-12-07T01:16:53;24.55;;;13.23;;
29430;SDS011;16404;49.902;10.074;2022-12-07T01:19:38;22.63;;;13.35;;
29430;SDS011;16404;49.902;10.074;2022-12-07T01:22:22;25.50;;;13.60;;
29430;SDS011;16404;49.902;10.074;2022-12-07T01:25:07;25.90;;;14.10;;
29430;SDS011;16404;49.902;10.074;2022-12-07T01:27:53;24.02;;;13.38;;
29430;SDS011;16404;49.902;10.074;2022-12-07T01:30:37;24.52;;;13.50;;
29430;SDS011;16404;49.902;10.074;2022-12-07T01:33:22;24.25;;;13.50;;
29430;SDS011;16404;49.902;10.074;2022-12-07T01:38:53;24.48;;;12.95;;
29430;SDS011;16404;49.902;10.074;2022-12-07T01:41:41;23.80;;;13.60;;
29430;SDS011;16404;49.902;10.074;2022-12-07T01:44:27;22.10;;;12.48;;
29430;SDS011;16404;49.902;10.074;2022-12-07T01:47:16;21.63;;;12.27;;
29430;SDS011;16404;49.902;10.074;2022-12-07T01:50:01;22.35;;;13.27;;
29430;SDS011;16404;49.902;10.074;2022-12-07T01:52:46;26.13;;;13.60;;
29430;SDS011;16404;49.902;10.074;2022-12-07T01:55:34;28.80;;;13.30;;
29430;SDS011;16404;49.902;10.074;2022-12-07T01:58:24;23.50;;;12.43;;
29430;SDS011;16404;49.902;10.074;2022-12-07T02:03:53;24.10;;;12.77;;
29430;SDS011;16404;49.902;10.074;2022-12-07T02:06:37;24.30;;;13.05;;
29430;SDS011;16404;49.902;10.074;2022-12-07T02:09:22;24.27;;;12.68;;
29430;SDS011;16404;49.902;10.074;2022-12-07T02:12:06;25.40;;;12.45;;
29430;SDS011;16404;49.902;10.074;2022-12-07T02:14:51;26.40;;;12.85;;
29430;SDS011;16404;49.902;10.074;2022-12-07T02:20:33;22.92;;;12.75;;
29430;SDS011;16404;49.902;10.074;2022-12-07T02:38:48;26.27;;;12.45;;
29430;SDS011;16404;49.902;10.074;2022-12-07T02:41:58;22.40;;;12.60;;
29430;SDS011;16404;49.902;10.074;2022-12-07T02:44:50;23.40;;;13.13;;
29430;SDS011;16404;49.902;10.074;2022-12-07T02:47:36;22.73;;;12.20;;
29430;SDS011;16404;49.902;10.074;2022-12-07T02:50:21;24.95;;;13.05;;
29430;SDS011;16404;49.902;10.074;2022-12-07T02:53:27;25.67;;;13.45;;
29430;SDS011;16404;49.902;10.074;2022-12-07T02:56:24;25.67;;;13.88;;
29430;SDS011;16404;49.902;10.074;2022-12-07T03:11:42;27.55;;;14.30;;
29430;SDS011;16404;49.902;10.074;2022-12-07T03:14:32;27.73;;;14.35;;
29430;SDS011;16404;49.902;10.074;2022-12-07T03:17:24;29.58;;;14.68;;
29430;SDS011;16404;49.902;10.074;2022-12-07T03:20:11;28.67;;;14.65;;
29430;SDS011;16404;49.902;10.074;2022-12-07T03:22:59;27.70;;;13.60;;
29430;SDS011;16404;49.902;10.074;2022-12-07T03:25:46;28.30;;;13.93;;
29430;SDS011;16404;49.902;10.074;2022-12-07T03:28:35;27.15;;;13.25;;
29430;SDS011;16404;49.902;10.074;2022-12-07T03:31:25;27.05;;;14.32;;
29430;SDS011;16404;49.902;10.074;2022-12-07T03:37:18;29.35;;;13.32;;
29430;SDS011;16404;49.902;10.074;2022-12-07T03:40:17;29.25;;;14.82;;
29430;SDS011;16404;49.902;10.074;2022-12-07T03:43:03;30.48;;;14.80;;
29430;SDS011;16404;49.902;10.074;2022-12-07T03:57:51;28.15;;;14.43;;
29430;SDS011;16404;49.902;10.074;2022-12-07T04:00:39;30.83;;;15.02;;
29430;SDS011;16404;49.902;10.074;2022-12-07T04:03:25;26.90;;;14.13;;
29430;SDS011;16404;49.902;10.074;2022-12-07T04:06:09;28.65;;;13.90;;
29430;SDS011;16404;49.902;10.074;2022-12-07T04:08:54;26.80;;;13.15;;
29430;SDS011;16404;49.902;10.074;2022-12-07T04:11:39;29.90;;;14.38;;
29430;SDS011;16404;49.902;10.074;2022-12-07T04:14:23;30.42;;;14.60;;
29430;SDS011;16404;49.902;10.074;2022-12-07T04:17:08;28.05;;;14.30;;
29430;SDS011;16404;49.902;10.074;2022-12-07T04:19:53;31.42;;;15.50;;
29430;SDS011;16404;49.902;10.074;2022-12-07T04:22:37;31.83;;;15.45;;
29430;SDS011;16404;49.902;10.074;2022-12-07T04:25:22;29.63;;;15.00;;
29430;SDS011;16404;49.902;10.074;2022-12-07T04:28:06;30.63;;;14.43;;
29430;SDS011;16404;49.902;10.074;2022-12-07T04:30:51;30.02;;;14.40;;
29430;SDS011;16404;49.902;10.074;2022-12-07T04:33:36;30.95;;;13.32;;
29430;SDS011;16404;49.902;10.074;2022-12-07T04:36:20;24.80;;;12.82;;
29430;SDS011;16404;49.902;10.074;2022-12-07T04:39:05;28.25;;;11.63;;
29430;SDS011;16404;49.902;10.074;2022-12-07T04:41:51;24.83;;;12.10;;
29430;SDS011;16404;49.902;10.074;2022-12-07T04:44:36;22.48;;;11.52;;
29430;SDS011;16404;49.902;10.074;2022-12-07T04:47:20;21.27;;;11.38;;
29430;SDS011;16404;49.902;10.074;2022-12-07T04:50:05;22.52;;;11.63;;
29430;SDS011;16404;49.902;10.074;2022-12-07T04:55:34;22.10;;;11.60;;
29430;SDS011;16404;49.902;10.074;2022-12-07T05:01:04;19.30;;;10.38;;
29430;SDS011;16404;49.902;10.074;2022-12-07T05:03:49;18.77;;;10.60;;
29430;SDS011;16404;49.902;10.074;2022-12-07T05:06:34;19.67;;;9.77;;
29430;SDS011;16404;49.902;10.074;2022-12-07T05:09:19;16.85;;;10.63;;
29430;SDS011;16404;49.902;10.074;2022-12-07T05:12:03;17.23;;;9.60;;
29430;SDS011;16404;49.902;10.074;2022-12-07T05:14:48;18.98;;;9.55;;
29430;SDS011;16404;49.902;10.074;2022-12-07T05:17:33;17.75;;;9.63;;
29430;SDS011;16404;49.902;10.074;2022-12-07T05:20:17;17.42;;;9.90;;
29430;SDS011;16404;49.902;10.074;2022-12-07T05:23:02;16.45;;;9.57;;
29430;SDS011;16404;49.902;10.074;2022-12-07T05:25:47;16.40;;;8.75;;
29430;SDS011;16404;49.902;10.074;2022-12-07T05:28:31;19.65;;;9.55;;
29430;SDS011;16404;49.902;10.074;2022-12-07T05:31:16;15.23;;;8.60;;
29430;SDS011;16404;49.902;10.074;2022-12-07T05:34:00;15.18;;;8.68;;
29430;SDS011;16404;49.902;10.074;2022-12-07T05:36:45;16.70;;;9.30;;
29430;SDS011;16404;49.902;10.074;2022-12-07T05:39:30;19.48;;;9.55;;
29430;SDS011;16404;49.902;10.074;2022-12-07T05:42:15;17.00;;;9.20;;
29430;SDS011;16404;49.902;10.074;2022-12-07T05:45:00;17.88;;;9.07;;
29430;SDS011;16404;49.902;10.074;2022-12-07T05:47:45;15.02;;;8.10;;
29430;SDS011;16404;49.902;10.074;2022-12-07T05:50:30;18.42;;;9.52;;
29430;SDS011;16404;49.902;10.074;2022-12-07T05:53:23;19.67;;;9.60;;
29430;SDS011;16404;49.902;10.074;2022-12-07T05:56:08;28.27;;;11.48;;
29430;SDS011;16404;49.902;10.074;2022-12-07T05:58:53;31.08;;;14.82;;
29430;SDS011;16404;49.902;10.074;2022-12-07T06:01:57;23.08;;;13.02;;
29430;SDS011;16404;49.902;10.074;2022-12-07T06:04:43;21.05;;;10.38;;
29430;SDS011;16404;49.902;10.074;2022-12-07T06:07:30;43.63;;;16.45;;
29430;SDS011;16404;49.902;10.074;2022-12-07T06:10:15;27.92;;;13.07;;
29430;SDS011;16404;49.902;10.074;2022-12-07T06:12:59;22.00;;;10.60;;
29430;SDS011;16404;49.902;10.074;2022-12-07T06:15:44;25.35;;;11.32;;
29430;SDS011;16404;49.902;10.074;2022-12-07T06:18:29;18.00;;;10.32;;
29430;SDS011;16404;49.902;10.074;2022-12-07T06:21:13;19.08;;;10.10;;
29430;SDS011;16404;49.902;10.074;2022-12-07T06:23:58;20.20;;;9.80;;
29430;SDS011;16404;49.902;10.074;2022-12-07T06:26:42;16.40;;;9.50;;
29430;SDS011;16404;49.902;10.074;2022-12-07T06:29:27;17.30;;;9.18;;
29430;SDS011;16404;49.902;10.074;2022-12-07T06:32:12;23.42;;;11.23;;
29430;SDS011;16404;49.902;10.074;2022-12-07T06:34:56;28.73;;;12.95;;
29430;SDS011;16404;49.902;10.074;2022-12-07T06:37:41;34.58;;;12.90;;
29430;SDS011;16404;49.902;10.074;2022-12-07T06:40:26;49.10;;;15.55;;
29430;SDS011;16404;49.902;10.074;2022-12-07T06:43:10;76.03;;;22.15;;
29430;SDS011;16404;49.902;10.074;2022-12-07T06:45:55;39.80;;;18.30;;
29430;SDS011;16404;49.902;10.074;2022-12-07T06:48:40;49.70;;;21.95;;
29430;SDS011;16404;49.902;10.074;2022-12-07T06:54:09;20.15;;;9.50;;
29430;SDS011;16404;49.902;10.074;2022-12-07T06:56:55;17.98;;;10.13;;
29430;SDS011;16404;49.902;10.074;2022-12-07T06:59:40;18.55;;;10.60;;
29430;SDS011;16404;49.902;10.074;2022-12-07T07:02:25;22.10;;;10.45;;
29430;SDS011;16404;49.902;10.074;2022-12-07T07:05:09;20.33;;;11.48;;
29430;SDS011;16404;49.902;10.074;2022-12-07T07:07:54;19.50;;;11.40;;
29430;SDS011;16404;49.902;10.074;2022-12-07T07:10:39;21.27;;;11.75;;
29430;SDS011;16404;49.902;10.074;2022-12-07T07:13:23;21.95;;;12.70;;
29430;SDS011;16404;49.902;10.074;2022-12-07T07:16:08;19.95;;;11.48;;
29430;SDS011;16404;49.902;10.074;2022-12-07T07:18:52;20.13;;;11.27;;
29430;SDS011;16404;49.902;10.074;2022-12-07T07:21:37;22.05;;;12.20;;
29430;SDS011;16404;49.902;10.074;2022-12-07T07:24:22;23.80;;;13.48;;
29430;SDS011;16404;49.902;10.074;2022-12-07T07:27:06;41.50;;;20.30;;
29430;SDS011;16404;49.902;10.074;2022-12-07T07:29:51;29.08;;;14.45;;
29430;SDS011;16404;49.902;10.074;2022-12-07T07:32:35;54.42;;;25.52;;
29430;SDS011;16404;49.902;10.074;2022-12-07T07:35:20;23.50;;;13.75;;
29430;SDS011;16404;49.902;10.074;2022-12-07T07:38:05;24.33;;;13.20;;
29430;SDS011;16404;49.902;10.074;2022-12-07T07:40:51;22.02;;;12.60;;
29430;SDS011;16404;49.902;10.074;2022-12-07T07:43:42;23.83;;;12.80;;
29430;SDS011;16404;49.902;10.074;2022-12-07T07:46:27;25.83;;;13.27;;
29430;SDS011;16404;49.902;10.074;2022-12-07T07:49:52;25.23;;;13.60;;
29430;SDS011;16404;49.902;10.074;2022-12-07T08:06:29;31.08;;;14.30;;
29430;SDS011;16404;49.902;10.074;2022-12-07T08:38:52;35.17;;;16.38;;
29430;SDS011;16404;49.902;10.074;2022-12-07T08:49:41;31.23;;;16.73;;
29430;SDS011;16404;49.902;10.074;2022-12-07T09:01:56;69.10;;;27.17;;
29430;SDS011;16404;49.902;10.074;2022-12-07T09:04:41;60.88;;;25.67;;
29430;SDS011;16404;49.902;10.074;2022-12-07T09:08:54;32.40;;;15.93;;
29430;SDS011;16404;49.902;10.074;2022-12-07T09:24:47;27.38;;;15.15;;
29430;SDS011;16404;49.902;10.074;2022-12-07T09:28:54;32.42;;;18.75;;
29430;SDS011;16404;49.902;10.074;2022-12-07T09:31:39;26.83;;;15.13;;
29430;SDS011;16404;49.902;10.074;2022-12-07T09:34:24;28.33;;;14.68;;
29430;SDS011;16404;49.902;10.074;2022-12-07T09:37:10;25.15;;;14.48;;
29430;SDS011;16404;49.902;10.074;2022-12-07T09:39:55;27.88;;;14.57;;
29430;SDS011;16404;49.902;10.074;2022-12-07T09:42:41;26.05;;;14.60;;
29430;SDS011;16404;49.902;10.074;2022-12-07T09:45:35;25.80;;;15.48;;
29430;SDS011;16404;49.902;10.074;2022-12-07T09:48:30;35.45;;;27.40;;
29430;SDS011;16404;49.902;10.074;2022-12-07T09:51:17;20.38;;;12.38;;
29430;SDS011;16404;49.902;10.074;2022-12-07T09:54:04;26.60;;;16.75;;
29430;SDS011;16404;49.902;10.074;2022-12-07T09:56:49;25.52;;;14.10;;
29430;SDS011;16404;49.902;10.074;2022-12-07T09:59:33;27.50;;;15.77;;
29430;SDS011;16404;49.902;10.074;2022-12-07T10:02:28;25.60;;;15.23;;
29430;SDS011;16404;49.902;10.074;2022-12-07T10:05:35;27.45;;;16.77;;
29430;SDS011;16404;49.902;10.074;2022-12-07T10:08:25;22.42;;;14.38;;
29430;SDS011;16404;49.902;10.074;2022-12-07T10:11:09;22.55;;;14.52;;
29430;SDS011;16404;49.902;10.074;2022-12-07T10:13:55;21.38;;;13.25;;
29430;SDS011;16404;49.902;10.074;2022-12-07T10:16:55;23.80;;;13.77;;
29430;SDS011;16404;49.902;10.074;2022-12-07T10:19:40;22.58;;;12.52;;
29430;SDS011;16404;49.902;10.074;2022-12-07T10:22:25;25.17;;;13.93;;
29430;SDS011;16404;49.902;10.074;2022-12-07T10:25:29;19.25;;;12.15;;
29430;SDS011;16404;49.902;10.074;2022-12-07T10:28:18;24.02;;;15.30;;
29430;SDS011;16404;49.902;10.074;2022-12-07T10:31:03;19.38;;;12.02;;
29430;SDS011;16404;49.902;10.074;2022-12-07T10:34:03;24.88;;;13.85;;
29430;SDS011;16404;49.902;10.074;2022-12-07T10:37:14;24.60;;;13.07;;
29430;SDS011;16404;49.902;10.074;2022-12-07T10:40:01;25.80;;;14.13;;
29430;SDS011;16404;49.902;10.074;2022-12-07T10:52:14;15.50;;;9.93;;
29430;SDS011;16404;49.902;10.074;2022-12-07T10:58:31;16.25;;;10.40;;
29430;SDS011;16404;49.902;10.074;2022-12-07T11:07:18;17.50;;;10.50;;
29430;SDS011;16404;49.902;10.074;2022-12-07T11:10:20;15.90;;;10.65;;
29430;SDS011;16404;49.902;10.074;2022-12-07T11:34:11;21.20;;;12.23;;
29430;SDS011;16404;49.902;10.074;2022-12-07T11:37:18;18.88;;;9.95;;
29430;SDS011;16404;49.902;10.074;2022-12-07T11:40:15;20.20;;;11.52;;
29430;SDS011;16404;49.902;10.074;2022-12-07T11:43:22;17.35;;;9.70;;
29430;SDS011;16404;49.902;10.074;2022-12-07T11:49:45;17.87;;;9.33;;
29430;SDS011;16404;49.902;10.074;2022-12-07T11:55:49;15.35;;;9.23;;
29430;SDS011;16404;49.902;10.074;2022-12-07T11:58:48;17.42;;;10.07;;
29430;SDS011;16404;49.902;10.074;2022-12-07T12:02:15;13.02;;;8.23;;
29430;SDS011;16404;49.902;10.074;2022-12-07T12:14:02;15.27;;;8.68;;
29430;SDS011;16404;49.902;10.074;2022-12-07T12:20:26;15.07;;;8.68;;
29430;SDS011;16404;49.902;10.074;2022-12-07T12:26:08;14.07;;;8.25;;
29430;SDS011;16404;49.902;10.074;2022-12-07T12:29:02;15.20;;;9.27;;
29430;SDS011;16404;49.902;10.074;2022-12-07T12:32:13;15.63;;;8.70;;
29430;SDS011;16404;49.902;10.074;2022-12-07T12:47:52;12.82;;;8.32;;
29430;SDS011;16404;49.902;10.074;2022-12-07T12:50:36;12.93;;;8.40;;
29430;SDS011;16404;49.902;10.074;2022-12-07T12:53:23;21.25;;;10.15;;
29430;SDS011;16404;49.902;10.074;2022-12-07T12:56:35;22.17;;;10.80;;
29430;SDS011;16404;49.902;10.074;2022-12-07T13:02:22;18.55;;;9.35;;
29430;SDS011;16404;49.902;10.074;2022-12-07T13:11:19;17.77;;;8.32;;
29430;SDS011;16404;49.902;10.074;2022-12-07T13:20:39;15.32;;;7.97;;
29430;SDS011;16404;49.902;10.074;2022-12-07T13:23:30;16.58;;;8.02;;
29430;SDS011;16404;49.902;10.074;2022-12-07T13:29:18;15.88;;;9.20;;
29430;SDS011;16404;49.902;10.074;2022-12-07T13:32:17;15.82;;;6.10;;
29430;SDS011;16404;49.902;10.074;2022-12-07T13:38:25;10.95;;;5.85;;
29430;SDS011;16404;49.902;10.074;2022-12-07T13:41:17;11.38;;;5.90;;
29430;SDS011;16404;49.902;10.074;2022-12-07T13:44:07;10.75;;;5.93;;
29430;SDS011;16404;49.902;10.074;2022-12-07T13:49:57;10.90;;;7.15;;
29430;SDS011;16404;49.902;10.074;2022-12-07T13:52:45;13.27;;;5.93;;
29430;SDS011;16404;49.902;10.074;2022-12-07T13:55:30;12.55;;;7.60;;
29430;SDS011;16404;49.902;10.074;2022-12-07T13:58:14;11.50;;;7.47;;
29430;SDS011;16404;49.902;10.074;2022-12-07T14:00:59;12.43;;;7.30;;
29430;SDS011;16404;49.902;10.074;2022-12-07T14:03:44;12.57;;;6.80;;
29430;SDS011;16404;49.902;10.074;2022-12-07T14:06:54;13.55;;;7.05;;
29430;SDS011;16404;49.902;10.074;2022-12-07T14:14:22;20.13;;;8.35;;
29430;SDS011;16404;49.902;10.074;2022-12-07T14:20:28;11.93;;;5.90;;
29430;SDS011;16404;49.902;10.074;2022-12-07T14:23:25;12.90;;;6.32;;
29430;SDS011;16404;49.902;10.074;2022-12-07T14:26:14;19.17;;;6.22;;
29430;SDS011;16404;49.902;10.074;2022-12-07T14:35:19;7.18;;;4.35;;
29430;SDS011;16404;49.902;10.074;2022-12-07T14:38:04;6.85;;;4.22;;
29430;SDS011;16404;49.902;10.074;2022-12-07T14:40:48;9.02;;;4.72;;
29430;SDS011;16404;49.902;10.074;2022-12-07T14:43:33;8.20;;;4.10;;
29430;SDS011;16404;49.902;10.074;2022-12-07T14:46:17;8.40;;;5.40;;
29430;SDS011;16404;49.902;10.074;2022-12-07T14:49:02;32.38;;;21.40;;
29430;SDS011;16404;49.902;10.074;2022-12-07T14:51:47;33.53;;;12.48;;
29430;SDS011;16404;49.902;10.074;2022-12-07T14:57:16;41.83;;;13.45;;
29430;SDS011;16404;49.902;10.074;2022-12-07T15:00:01;24.42;;;10.13;;
29430;SDS011;16404;49.902;10.074;2022-12-07T15:05:31;27.65;;;10.15;;
29430;SDS011;16404;49.902;10.074;2022-12-07T15:08:18;31.33;;;10.70;;
29430;SDS011;16404;49.902;10.074;2022-12-07T15:11:02;35.63;;;14.63;;
29430;SDS011;16404;49.902;10.074;2022-12-07T15:13:47;38.78;;;14.63;;
29430;SDS011;16404;49.902;10.074;2022-12-07T15:16:50;35.92;;;14.05;;
29430;SDS011;16404;49.902;10.074;2022-12-07T15:19:35;31.08;;;13.40;;
29430;SDS011;16404;49.902;10.074;2022-12-07T15:22:19;32.15;;;13.77;;
29430;SDS011;16404;49.902;10.074;2022-12-07T15:25:04;17.52;;;9.57;;
29430;SDS011;16404;49.902;10.074;2022-12-07T15:27:49;15.65;;;7.93;;
29430;SDS011;16404;49.902;10.074;2022-12-07T15:30:36;18.55;;;9.25;;
29430;SDS011;16404;49.902;10.074;2022-12-07T15:33:21;29.73;;;12.05;;
29430;SDS011;16404;49.902;10.074;2022-12-07T15:36:19;22.45;;;9.20;;
29430;SDS011;16404;49.902;10.074;2022-12-07T15:39:09;28.23;;;12.00;;
29430;SDS011;16404;49.902;10.074;2022-12-07T15:41:54;21.88;;;10.27;;
29430;SDS011;16404;49.902;10.074;2022-12-07T15:44:38;26.13;;;11.20;;
29430;SDS011;16404;49.902;10.074;2022-12-07T15:47:42;32.88;;;14.35;;
29430;SDS011;16404;49.902;10.074;2022-12-07T15:50:30;14.88;;;9.20;;
29430;SDS011;16404;49.902;10.074;2022-12-07T15:53:18;19.55;;;11.85;;
29430;SDS011;16404;49.902;10.074;2022-12-07T15:56:06;19.63;;;11.93;;
29430;SDS011;16404;49.902;10.074;2022-12-07T15:58:55;18.92;;;11.80;;
29430;SDS011;16404;49.902;10.074;2022-12-07T16:01:43;17.38;;;10.65;;
29430;SDS011;16404;49.902;10.074;2022-12-07T16:04:29;22.35;;;12.77;;
29430;SDS011;16404;49.902;10.074;2022-12-07T16:07:13;12.35;;;7.53;;
29430;SDS011;16404;49.902;10.074;2022-12-07T16:10:00;10.50;;;5.85;;
29430;SDS011;16404;49.902;10.074;2022-12-07T16:12:44;20.45;;;12.05;;
29430;SDS011;16404;49.902;10.074;2022-12-07T16:15:29;16.05;;;8.20;;
29430;SDS011;16404;49.902;10.074;2022-12-07T16:18:13;21.10;;;14.27;;
29430;SDS011;16404;49.902;10.074;2022-12-07T16:20:58;9.63;;;6.18;;
29430;SDS011;16404;49.902;10.074;2022-12-07T16:23:43;8.60;;;6.85;;
29430;SDS011;16404;49.902;10.074;2022-12-07T16:29:12;17.75;;;10.95;;
29430;SDS011;16404;49.902;10.074;2022-12-07T16:31:57;13.73;;;7.45;;
29430;SDS011;16404;49.902;10.074;2022-12-07T16:34:42;15.15;;;8.07;;
29430;SDS011;16404;49.902;10.074;2022-12-07T16:37:27;18.50;;;10.25;;
29430;SDS011;16404;49.902;10.074;2022-12-07T16:40:11;19.30;;;12.15;;
29430;SDS011;16404;49.902;10.074;2022-12-07T16:42:56;18.05;;;13.35;;
29430;SDS011;16404;49.902;10.074;2022-12-07T16:45:40;18.85;;;10.48;;
29430;SDS011;16404;49.902;10.074;2022-12-07T16:48:25;18.35;;;9.88;;
29430;SDS011;16404;49.902;10.074;2022-12-07T16:51:10;20.40;;;10.82;;
29430;SDS011;16404;49.902;10.074;2022-12-07T16:53:57;19.33;;;10.95;;
29430;SDS011;16404;49.902;10.074;2022-12-07T16:56:41;23.38;;;11.98;;
29430;SDS011;16404;49.902;10.074;2022-12-07T16:59:26;31.85;;;16.40;;
29430;SDS011;16404;49.902;10.074;2022-12-07T17:02:19;29.80;;;16.55;;
29430;SDS011;16404;49.902;10.074;2022-12-07T17:05:04;32.20;;;16.50;;
29430;SDS011;16404;49.902;10.074;2022-12-07T17:07:50;42.20;;;16.10;;
29430;SDS011;16404;49.902;10.074;2022-12-07T17:10:35;37.45;;;15.43;;
29430;SDS011;16404;49.902;10.074;2022-12-07T17:13:21;22.10;;;12.13;;
29430;SDS011;16404;49.902;10.074;2022-12-07T17:16:25;23.08;;;10.10;;
29430;SDS011;16404;49.902;10.074;2022-12-07T17:19:11;32.08;;;15.85;;
29430;SDS011;16404;49.902;10.074;2022-12-07T17:21:57;19.88;;;11.45;;
29430;SDS011;16404;49.902;10.074;2022-12-07T17:24:55;15.50;;;9.43;;
29430;SDS011;16404;49.902;10.074;2022-12-07T17:27:39;21.92;;;10.55;;
29430;SDS011;16404;49.902;10.074;2022-12-07T17:33:11;29.23;;;14.18;;
29430;SDS011;16404;49.902;10.074;2022-12-07T17:35:59;32.92;;;18.08;;
29430;SDS011;16404;49.902;10.074;2022-12-07T17:38:45;25.35;;;15.25;;
29430;SDS011;16404;49.902;10.074;2022-12-07T17:41:31;28.42;;;17.00;;
29430;SDS011;16404;49.902;10.074;2022-12-07T17:44:34;26.88;;;12.77;;
29430;SDS011;16404;49.902;10.074;2022-12-07T17:47:19;27.58;;;10.43;;
29430;SDS011;16404;49.902;10.074;2022-12-07T17:50:05;19.05;;;10.45;;
29430;SDS011;16404;49.902;10.074;2022-12-07T17:52:50;28.77;;;12.10;;
29430;SDS011;16404;49.902;10.074;2022-12-07T17:55:55;36.45;;;19.15;;
29430;SDS011;16404;49.902;10.074;2022-12-07T17:58:40;30.38;;;16.05;;
29430;SDS011;16404;49.902;10.074;2022-12-07T18:01:26;22.63;;;13.57;;
29430;SDS011;16404;49.902;10.074;2022-12-07T18:04:10;41.08;;;24.77;;
29430;SDS011;16404;49.902;10.074;2022-12-07T18:06:55;19.45;;;14.07;;
29430;SDS011;16404;49.902;10.074;2022-12-07T18:09:40;19.95;;;12.50;;
29430;SDS011;16404;49.902;10.074;2022-12-07T18:12:26;24.63;;;15.98;;
29430;SDS011;16404;49.902;10.074;2022-12-07T18:15:11;23.38;;;13.35;;
29430;SDS011;16404;49.902;10.074;2022-12-07T18:17:55;21.52;;;11.82;;
29430;SDS011;16404;49.902;10.074;2022-12-07T18:20:40;23.45;;;14.10;;
29430;SDS011;16404;49.902;10.074;2022-12-07T18:23:25;24.08;;;13.57;;
29430;SDS011;16404;49.902;10.074;2022-12-07T18:26:10;28.30;;;16.55;;
29430;SDS011;16404;49.902;10.074;2022-12-07T18:28:59;28.42;;;16.38;;
29430;SDS011;16404;49.902;10.074;2022-12-07T18:31:44;15.93;;;12.35;;
29430;SDS011;16404;49.902;10.074;2022-12-07T18:34:32;21.42;;;11.93;;
29430;SDS011;16404;49.902;10.074;2022-12-07T18:37:17;18.08;;;10.75;;
29430;SDS011;16404;49.902;10.074;2022-12-07T18:40:01;21.38;;;10.38;;
29430;SDS011;16404;49.902;10.074;2022-12-07T18:42:46;21.33;;;11.52;;
29430;SDS011;16404;49.902;10.074;2022-12-07T18:45:34;19.70;;;11.43;;
29430;SDS011;16404;49.902;10.074;2022-12-07T18:48:19;22.13;;;8.60;;
29430;SDS011;16404;49.902;10.074;2022-12-07T18:51:05;16.15;;;8.85;;
29430;SDS011;16404;49.902;10.074;2022-12-07T18:53:50;17.20;;;8.80;;
29430;SDS011;16404;49.902;10.074;2022-12-07T18:56:35;16.00;;;6.85;;
29430;SDS011;16404;49.902;10.074;2022-12-07T18:59:20;14.30;;;6.60;;
29430;SDS011;16404;49.902;10.074;2022-12-07T19:02:23;15.02;;;6.95;;
29430;SDS011;16404;49.902;10.074;2022-12-07T19:07:52;16.83;;;7.95;;
29430;SDS011;16404;49.902;10.074;2022-12-07T19:10:37;29.75;;;12.13;;
29430;SDS011;16404;49.902;10.074;2022-12-07T19:13:22;16.13;;;9.65;;
29430;SDS011;16404;49.902;10.074;2022-12-07T19:16:06;17.15;;;9.90;;
29430;SDS011;16404;49.902;10.074;2022-12-07T19:18:51;16.98;;;10.50;;
29430;SDS011;16404;49.902;10.074;2022-12-07T19:21:36;24.77;;;12.00;;
29430;SDS011;16404;49.902;10.074;2022-12-07T19:24:20;28.38;;;13.20;;
29430;SDS011;16404;49.902;10.074;2022-12-07T19:27:05;23.65;;;12.32;;
29430;SDS011;16404;49.902;10.074;2022-12-07T19:29:51;25.75;;;12.68;;
29430;SDS011;16404;49.902;10.074;2022-12-07T19:32:36;32.28;;;15.75;;
29430;SDS011;16404;49.902;10.074;2022-12-07T19:38:05;25.52;;;14.13;;
29430;SDS011;16404;49.902;10.074;2022-12-07T19:40:49;27.17;;;13.90;;
29430;SDS011;16404;49.902;10.074;2022-12-07T19:43:34;28.95;;;15.23;;
29430;SDS011;16404;49.902;10.074;2022-12-07T19:46:19;30.23;;;14.82;;
29430;SDS011;16404;49.902;10.074;2022-12-07T19:49:04;29.08;;;16.67;;
29430;SDS011;16404;49.902;10.074;2022-12-07T19:51:50;32.08;;;16.15;;
29430;SDS011;16404;49.902;10.074;2022-12-07T19:54:36;32.13;;;16.23;;
29430;SDS011;16404;49.902;10.074;2022-12-07T19:57:29;31.10;;;16.13;;
29430;SDS011;16404;49.902;10.074;2022-12-07T20:03:56;36.38;;;20.20;;
29430;SDS011;16404;49.902;10.074;2022-12-07T20:06:41;35.42;;;16.95;;
29430;SDS011;16404;49.902;10.074;2022-12-07T20:09:26;32.80;;;17.15;;
29430;SDS011;16404;49.902;10.074;2022-12-07T20:12:10;26.05;;;15.02;;
29430;SDS011;16404;49.902;10.074;2022-12-07T20:15:14;26.52;;;14.98;;
29430;SDS011;16404;49.902;10.074;2022-12-07T20:17:58;28.67;;;15.55;;
29430;SDS011;16404;49.902;10.074;2022-12-07T20:20:51;33.00;;;15.63;;
29430;SDS011;16404;49.902;10.074;2022-12-07T20:23:40;30.95;;;15.40;;
29430;SDS011;16404;49.902;10.074;2022-12-07T20:26:24;30.00;;;15.18;;
29430;SDS011;16404;49.902;10.074;2022-12-07T20:29:10;28.05;;;14.85;;
29430;SDS011;16404;49.902;10.074;2022-12-07T20:31:59;25.92;;;14.32;;
29430;SDS011;16404;49.902;10.074;2022-12-07T20:34:44;28.40;;;14.57;;
29430;SDS011;16404;49.902;10.074;2022-12-07T20:37:29;26.40;;;14.15;;
29430;SDS011;16404;49.902;10.074;2022-12-07T20:40:14;32.00;;;16.27;;
29430;SDS011;16404;49.902;10.074;2022-12-07T20:42:58;29.67;;;16.33;;